KAOO/AOO METAR and TAF weather

Enter ICAO airport designator
Station Type Date Time Source
KAOO METAR 2019/05/26 00:53 UTC NOAA

KAOO 260053Z AUTO 21007KT 10SM CLR 21/18 A3003 RMK AO2 LTG DSNT W SLP162 T02110183


Station Type Date Time Source
KAOO Decoded METAR 2019/05/26 00:53 UTC NOAA

ALTOONA-BLAIR COUNTY AIRPORT, PA, United States (KAOO) 40-18N 78-19W 455M
May 25, 2019 - 08:53 PM EDT / 2019.05.26 0053 UTC
Wind: from the SSW (210 degrees) at 8 MPH (7 KT):0
Visibility: 10 mile(s):0
Sky conditions: clear
Weather: Lightning observed
Temperature: 70.0 F (21.1 C)
Dew Point: 64.9 F (18.3 C)
Relative Humidity: 84%
Pressure (altimeter): 30.03 in. Hg (1016 hPa)
ob: KAOO 260053Z AUTO 21007KT 10SM CLR 21/18 A3003 RMK AO2 LTG DSNT W SLP162 T02110183
cycle: 1

Station Type Date Time Source
KAOO TAF 2019/05/25 20:27 UTC NOAA

TAF
AMD KAOO 252025Z 2520/2618 19010G20KT P6SM -SHRA SCT050 BKN080
TEMPO 2521/2522 2SM TSRA BR OVC035CB
FM260000 20008G18KT 6SM -SHRA VCTS BKN040CB
TEMPO 2600/2603 27015G25KT 2SM -TSRA OVC030CB
FM260500 24007KT 5SM BR BKN090
FM261200 27010KT P6SM SCT050
FM261700 28010G18KT P6SM VCSH BKN050

Example: see airport list